Time;durP1;ratioP1;P1;durP2;ratioP2;P2;SDS_P1;SDS_P2;PMS_P1;PMS_P2;Temp;Humidity;BMP_temperature;BMP_pressure;BME280_temperature;BME280_humidity;BME280_pressure;Samples;Min_cycle;Max_cycle;Signal;HPM_P1;HPM_P2
2022/12/14 00:00:27;;;;;;;43.87;25.90;;;-2.30;74.20;;;;;;5100971;27;20543;-74
2022/12/14 00:02:53;;;;;;;42.33;24.13;;;-2.20;74.40;;;;;;5117357;27;20065;-74
2022/12/14 00:05:18;;;;;;;41.83;24.37;;;-2.40;74.40;;;;;;5117214;27;20045;-74
2022/12/14 00:07:44;;;;;;;38.13;23.43;;;-2.40;74.60;;;;;;5116693;27;20053;-74
2022/12/14 00:10:10;;;;;;;37.67;23.80;;;-2.40;74.90;;;;;;5117625;27;20108;-73
2022/12/14 00:12:36;;;;;;;43.57;25.40;;;-2.40;75.10;;;;;;5099279;27;20051;-73
2022/12/14 00:15:02;;;;;;;42.37;24.30;;;-2.30;75.40;;;;;;5129326;27;20136;-73
2022/12/14 00:17:28;;;;;;;40.00;23.77;;;-2.30;75.60;;;;;;5133884;27;20483;-74
2022/12/14 00:19:54;;;;;;;38.33;23.10;;;-2.30;75.80;;;;;;5117040;27;20038;-72
2022/12/14 00:22:19;;;;;;;37.33;22.73;;;-2.20;76.00;;;;;;5096261;28;20047;-72
2022/12/14 00:24:45;;;;;;;37.23;22.43;;;-2.10;76.20;;;;;;5100084;27;20068;-72
2022/12/14 00:27:11;;;;;;;39.47;23.47;;;-2.10;76.20;;;;;;5082914;27;20398;-72
2022/12/14 00:29:36;;;;;;;36.20;22.20;;;-2.10;76.30;;;;;;5117255;27;20069;-72
2022/12/14 00:32:02;;;;;;;34.37;21.87;;;-2.00;76.30;;;;;;5116623;27;20035;-72
2022/12/14 00:34:28;;;;;;;36.97;21.87;;;-2.00;76.30;;;;;;5116284;27;20035;-72
2022/12/14 00:36:54;;;;;;;34.30;21.93;;;-1.90;76.30;;;;;;5116783;27;20382;-72
2022/12/14 00:39:20;;;;;;;32.13;20.17;;;-1.90;76.10;;;;;;5117144;27;20081;-72
2022/12/14 00:41:45;;;;;;;36.37;21.20;;;-1.90;75.80;;;;;;5099464;27;20074;-72
2022/12/14 00:44:11;;;;;;;36.87;21.87;;;-1.90;75.60;;;;;;5133422;27;20542;-72
2022/12/14 00:46:37;;;;;;;39.57;22.57;;;-1.90;75.60;;;;;;5116636;27;20045;-73
2022/12/14 00:49:02;;;;;;;35.20;21.30;;;-1.80;75.60;;;;;;5124196;27;20482;-73
2022/12/14 00:51:28;;;;;;;37.00;22.57;;;-1.80;75.60;;;;;;5116261;27;20104;-72
2022/12/14 00:53:54;;;;;;;35.07;22.20;;;-1.80;75.50;;;;;;5116225;27;20039;-72
2022/12/14 00:56:19;;;;;;;32.07;20.47;;;-1.80;75.10;;;;;;5116204;27;20043;-73
2022/12/14 00:58:52;;;;;;;32.37;19.80;;;-1.80;74.80;;;;;;5123481;27;20062;-72
2022/12/14 01:01:18;;;;;;;35.27;21.43;;;-1.80;75.20;;;;;;5098312;27;20039;-72
2022/12/14 01:03:44;;;;;;;35.60;20.77;;;-1.80;74.80;;;;;;5115927;27;20042;-72
2022/12/14 01:06:15;;;;;;;37.17;22.67;;;-1.70;74.80;;;;;;5116005;27;20039;-72
2022/12/14 01:08:41;;;;;;;35.80;22.00;;;-1.70;74.80;;;;;;5099629;27;20050;-72
2022/12/14 01:11:08;;;;;;;36.43;20.77;;;-1.80;74.60;;;;;;5098904;27;20122;-72
2022/12/14 01:13:35;;;;;;;35.77;22.13;;;-1.70;74.50;;;;;;5115672;27;20043;-72
2022/12/14 01:16:15;;;;;;;35.80;22.47;;;-1.70;74.60;;;;;;5126816;27;20039;-72
2022/12/14 01:18:42;;;;;;;31.47;19.50;;;-1.70;74.60;;;;;;5098759;27;20089;-72
2022/12/14 01:21:16;;;;;;;37.03;20.60;;;-1.70;75.00;;;;;;5115665;27;20051;-72
2022/12/14 01:23:43;;;;;;;36.53;21.63;;;-1.70;74.50;;;;;;5115932;27;20040;-72
2022/12/14 01:26:10;;;;;;;33.13;20.00;;;-1.70;74.20;;;;;;5115997;27;20394;-72
2022/12/14 01:28:36;;;;;;;33.90;20.37;;;-1.70;74.10;;;;;;5117073;27;20039;-72
2022/12/14 01:31:13;;;;;;;33.57;20.43;;;-1.70;74.40;;;;;;5116716;27;20402;-72
2022/12/14 01:33:39;;;;;;;35.03;20.87;;;-1.70;73.90;;;;;;5115634;27;20043;-72
2022/12/14 01:36:08;;;;;;;33.73;19.83;;;-1.70;73.70;;;;;;5115318;27;20397;-72
2022/12/14 01:38:34;;;;;;;32.33;20.43;;;-1.80;73.40;;;;;;5114987;27;20039;-72
2022/12/14 01:41:00;;;;;;;31.80;19.37;;;-1.80;73.10;;;;;;5115261;28;20119;-72
2022/12/14 01:43:51;;;;;;;33.70;22.13;;;-1.80;72.80;;;;;;5129008;27;20035;-72
2022/12/14 01:46:24;;;;;;;32.53;20.73;;;-1.80;72.70;;;;;;5078225;28;20495;-72
2022/12/14 01:48:54;;;;;;;37.07;23.03;;;-1.90;72.70;;;;;;5094954;28;20077;-66
2022/12/14 01:51:21;;;;;;;34.40;20.53;;;-1.90;72.80;;;;;;5101442;27;20039;-66
2022/12/14 01:53:47;;;;;;;38.33;22.00;;;-1.90;72.80;;;;;;5116404;27;20413;-66
2022/12/14 01:56:15;;;;;;;35.83;21.30;;;-1.90;72.70;;;;;;5115372;28;20053;-66
2022/12/14 01:58:41;;;;;;;37.50;22.70;;;-2.00;72.40;;;;;;5133410;28;20118;-66
2022/12/14 02:01:06;;;;;;;35.03;21.77;;;-2.00;72.30;;;;;;5115272;28;20118;-65
2022/12/14 02:03:36;;;;;;;35.50;21.33;;;-2.10;72.10;;;;;;5114690;28;20027;-66
2022/12/14 02:06:10;;;;;;;34.97;19.80;;;-2.10;71.90;;;;;;5115243;28;20118;-65
2022/12/14 02:08:40;;;;;;;34.58;21.00;;;-2.20;71.80;;;;;;5115010;28;20476;-66
2022/12/14 02:11:06;;;;;;;36.60;21.43;;;-2.20;71.70;;;;;;5114827;28;20047;-65
2022/12/14 02:13:35;;;;;;;36.20;20.87;;;-2.30;71.60;;;;;;5098103;28;20122;-66
2022/12/14 02:16:01;;;;;;;37.90;23.27;;;-2.30;71.60;;;;;;5099233;28;20050;-66
2022/12/14 02:18:29;;;;;;;33.33;20.07;;;-2.40;71.50;;;;;;5115092;28;20031;-66
2022/12/14 02:21:06;;;;;;;38.53;21.73;;;-2.40;71.40;;;;;;5097846;28;20090;-66
2022/12/14 02:24:03;;;;;;;35.30;21.07;;;-2.50;71.20;;;;;;5114546;28;20047;-65
2022/12/14 02:27:01;;;;;;;36.97;19.83;;;-2.60;71.20;;;;;;5122892;28;20046;-66
2022/12/14 02:29:45;;;;;;;36.80;20.93;;;-2.60;71.30;;;;;;5126507;28;20050;-65
2022/12/14 02:32:29;;;;;;;34.40;19.70;;;-2.70;71.30;;;;;;5119072;28;20509;-71
2022/12/14 02:35:00;;;;;;;32.72;17.23;;;-2.80;71.40;;;;;;5114995;27;20301;-72
2022/12/14 02:37:59;;;;;;;33.00;18.90;;;-2.90;71.40;;;;;;5118339;27;20035;-71
2022/12/14 02:40:38;;;;;;;31.23;18.67;;;-2.90;71.30;;;;;;5118005;27;20047;-72
2022/12/14 02:43:15;;;;;;;32.60;18.40;;;-2.90;71.50;;;;;;5132993;27;20538;-71
2022/12/14 02:46:13;;;;;;;36.00;19.37;;;-3.00;71.40;;;;;;5098338;28;20108;-71
2022/12/14 02:48:44;;;;;;;32.23;19.57;;;-3.00;71.50;;;;;;5118386;27;20074;-71
2022/12/14 02:51:28;;;;;;;34.00;20.20;;;-3.10;71.60;;;;;;5118444;27;20058;-71
2022/12/14 02:54:12;;;;;;;30.23;17.93;;;-3.10;71.60;;;;;;5118633;27;20393;-71
2022/12/14 02:56:53;;;;;;;30.30;17.83;;;-3.10;71.80;;;;;;5122142;27;20039;-71
2022/12/14 02:59:20;;;;;;;34.43;18.30;;;-3.10;71.90;;;;;;5135526;27;20070;-65
2022/12/14 03:01:48;;;;;;;32.23;17.87;;;-3.10;72.50;;;;;;5101492;27;20039;-65
2022/12/14 03:04:15;;;;;;;31.07;18.93;;;-3.10;72.30;;;;;;5118378;27;20102;-65
2022/12/14 03:07:02;;;;;;;32.10;18.07;;;-3.10;72.50;;;;;;5117660;27;20092;-65
2022/12/14 03:09:29;;;;;;;32.27;17.87;;;-3.10;72.50;;;;;;5118549;27;20092;-66
2022/12/14 03:12:03;;;;;;;32.63;18.00;;;-3.10;72.40;;;;;;5118806;27;20393;-65
2022/12/14 03:14:57;;;;;;;30.17;17.27;;;-3.10;72.30;;;;;;5118339;27;20432;-65
2022/12/14 03:17:26;;;;;;;31.83;17.00;;;-3.10;72.30;;;;;;5118467;27;20043;-65
2022/12/14 03:19:58;;;;;;;35.80;19.00;;;-3.20;72.10;;;;;;5118341;27;20126;-65
2022/12/14 03:22:32;;;;;;;32.67;18.67;;;-3.10;72.30;;;;;;5135994;27;20375;-65
2022/12/14 03:25:04;;;;;;;34.25;19.33;;;-3.20;72.40;;;;;;5117614;27;20039;-65
2022/12/14 03:27:34;;;;;;;32.63;19.23;;;-3.20;72.50;;;;;;5114415;27;20092;-65
2022/12/14 03:30:11;;;;;;;29.70;16.37;;;-3.20;72.70;;;;;;5117974;27;20054;-65
2022/12/14 03:32:43;;;;;;;29.17;17.50;;;-3.10;73.00;;;;;;5123670;27;20105;-65
2022/12/14 03:35:22;;;;;;;30.27;17.53;;;-3.10;73.10;;;;;;5134844;27;20043;-65
2022/12/14 03:38:15;;;;;;;28.37;17.10;;;-3.00;73.30;;;;;;5128072;27;20390;-65
2022/12/14 03:40:54;;;;;;;30.60;17.63;;;-3.00;73.50;;;;;;5117839;27;20047;-65
2022/12/14 03:43:32;;;;;;;32.70;17.53;;;-3.00;73.60;;;;;;5117816;27;20096;-65
2022/12/14 03:46:14;;;;;;;29.27;16.37;;;-3.00;73.60;;;;;;5117587;27;20095;-71
2022/12/14 03:48:49;;;;;;;28.80;16.00;;;-3.00;73.60;;;;;;5117232;27;20057;-71
2022/12/14 03:51:48;;;;;;;32.10;17.23;;;-3.00;73.70;;;;;;5117185;27;20073;-72
2022/12/14 03:54:31;;;;;;;31.87;18.07;;;-2.90;73.70;;;;;;5117632;27;20447;-71
2022/12/14 03:57:10;;;;;;;34.47;18.90;;;-2.90;73.70;;;;;;5117481;27;20043;-65
2022/12/14 04:00:04;;;;;;;29.67;17.47;;;-2.80;73.80;;;;;;5121298;27;20156;-65
2022/12/14 04:02:45;;;;;;;30.40;17.17;;;-2.80;73.80;;;;;;5134374;27;20075;-65
2022/12/14 04:05:20;;;;;;;30.87;18.00;;;-2.80;73.70;;;;;;5117937;27;20035;-65
2022/12/14 04:07:53;;;;;;;30.83;17.03;;;-2.70;73.70;;;;;;5096776;28;20083;-65
2022/12/14 04:18:58;;;;;;;28.33;16.83;;;-2.70;73.20;;;;;;5102684;27;20053;-65
2022/12/14 04:21:40;;;;;;;27.02;16.02;;;-2.70;73.20;;;;;;5116872;27;20402;-66
2022/12/14 04:27:33;;;;;;;31.30;17.30;;;-2.60;73.30;;;;;;5117019;27;20394;-65
2022/12/14 04:30:00;;;;;;;29.38;16.30;;;-2.60;73.30;;;;;;5117060;27;20034;-65
2022/12/14 04:32:51;;;;;;;29.03;17.70;;;-2.60;73.20;;;;;;5116736;27;20554;-65
2022/12/14 04:35:50;;;;;;;29.53;15.90;;;-2.60;73.20;;;;;;5112232;27;20057;-65
2022/12/14 04:38:22;;;;;;;30.73;16.73;;;-2.60;73.20;;;;;;5052847;27;20055;-71
2022/12/14 04:40:52;;;;;;;30.53;17.33;;;-2.60;73.20;;;;;;5105149;27;20047;-71
2022/12/14 04:43:22;;;;;;;32.93;18.27;;;-2.60;73.10;;;;;;5117025;27;20047;-71
2022/12/14 04:45:50;;;;;;;30.43;17.33;;;-2.60;73.00;;;;;;5116729;27;20122;-71
2022/12/14 04:48:16;;;;;;;28.63;15.67;;;-2.60;72.80;;;;;;5116664;27;20351;-71
2022/12/14 04:50:46;;;;;;;26.00;15.63;;;-2.60;72.70;;;;;;5134524;27;20072;-71
2022/12/14 04:53:20;;;;;;;28.13;16.47;;;-2.60;72.60;;;;;;5116318;27;20039;-71
2022/12/14 04:56:08;;;;;;;21.30;12.57;;;-2.60;72.50;;;;;;5133947;27;20047;-71
2022/12/14 04:58:35;;;;;;;26.93;16.43;;;-2.60;72.40;;;;;;5128272;27;20035;-71
2022/12/14 05:01:12;;;;;;;27.50;16.90;;;-2.70;72.50;;;;;;5116220;27;20382;-71
2022/12/14 05:03:57;;;;;;;26.03;15.43;;;-2.60;72.50;;;;;;5116202;27;20458;-71
2022/12/14 05:06:25;;;;;;;27.42;15.77;;;-2.60;72.50;;;;;;5115846;27;20039;-71
2022/12/14 05:09:18;;;;;;;30.70;16.33;;;-2.60;72.40;;;;;;5116018;27;20371;-71
2022/12/14 05:12:06;;;;;;;28.43;17.00;;;-2.60;72.30;;;;;;5133207;27;20463;-65
2022/12/14 05:14:47;;;;;;;26.00;15.93;;;-2.60;72.30;;;;;;5132906;27;20087;-65
2022/12/14 05:17:14;;;;;;;30.83;17.40;;;-2.60;72.20;;;;;;5129898;27;20066;-65
2022/12/14 05:19:49;;;;;;;28.80;15.63;;;-2.70;72.10;;;;;;5115469;27;20698;-65
2022/12/14 05:22:16;;;;;;;28.30;16.07;;;-2.60;72.10;;;;;;5115347;27;20059;-65
2022/12/14 05:24:42;;;;;;;27.17;14.17;;;-2.70;72.00;;;;;;5126544;27;20047;-64
2022/12/14 05:27:08;;;;;;;30.13;16.37;;;-2.70;72.00;;;;;;5132555;27;20042;-64
2022/12/14 05:29:34;;;;;;;29.13;16.23;;;-2.70;72.00;;;;;;5132783;27;20031;-64
2022/12/14 05:32:00;;;;;;;29.93;16.93;;;-2.70;72.00;;;;;;5115599;27;20031;-64
2022/12/14 05:34:26;;;;;;;28.63;15.37;;;-2.70;71.90;;;;;;5115661;28;20121;-64
2022/12/14 05:36:52;;;;;;;27.03;15.50;;;-2.70;71.90;;;;;;5132172;27;20118;-64
2022/12/14 05:39:17;;;;;;;29.07;16.97;;;-2.70;71.90;;;;;;5130481;27;20035;-64
2022/12/14 05:41:43;;;;;;;30.37;15.87;;;-2.70;71.90;;;;;;5115363;27;20035;-64
2022/12/14 05:44:09;;;;;;;28.83;15.53;;;-2.70;71.90;;;;;;5115559;28;20043;-64
2022/12/14 05:46:34;;;;;;;28.77;17.10;;;-2.70;71.70;;;;;;5098102;27;20039;-64
2022/12/14 05:49:01;;;;;;;26.30;15.67;;;-2.70;71.60;;;;;;5115547;28;20460;-64
2022/12/14 05:51:26;;;;;;;30.63;17.80;;;-2.70;71.60;;;;;;5122634;27;20483;-64
2022/12/14 05:53:52;;;;;;;28.10;16.80;;;-2.80;71.50;;;;;;5102000;28;20135;-64
2022/12/14 05:56:18;;;;;;;28.83;15.27;;;-2.80;71.40;;;;;;5114964;28;20035;-64
2022/12/14 05:58:48;;;;;;;30.43;15.87;;;-2.80;71.40;;;;;;5115207;28;20161;-64
2022/12/14 06:01:14;;;;;;;32.40;17.87;;;-2.80;71.30;;;;;;5098344;28;20039;-64
2022/12/14 06:03:40;;;;;;;29.40;16.17;;;-2.80;71.30;;;;;;5133344;28;20044;-64
2022/12/14 06:06:09;;;;;;;26.63;16.10;;;-2.80;71.30;;;;;;5114939;28;20076;-64
2022/12/14 06:08:37;;;;;;;27.10;15.87;;;-2.80;71.30;;;;;;5115295;28;20670;-64
2022/12/14 06:11:11;;;;;;;29.10;16.53;;;-2.80;71.30;;;;;;5133576;27;20046;-64
2022/12/14 06:13:38;;;;;;;22.95;12.25;;;-2.80;71.30;;;;;;5136787;27;20047;-64
2022/12/14 06:16:16;;;;;;;28.23;15.07;;;-2.80;71.20;;;;;;5130454;27;20436;-64
2022/12/14 06:18:48;;;;;;;27.90;15.87;;;-2.90;71.20;;;;;;5118159;27;20039;-64
2022/12/14 06:21:15;;;;;;;27.37;16.07;;;-2.80;71.30;;;;;;5119101;27;20078;-64
2022/12/14 06:23:41;;;;;;;31.23;15.77;;;-2.90;71.10;;;;;;5119537;27;20050;-64
2022/12/14 06:26:08;;;;;;;29.03;18.73;;;-2.90;71.10;;;;;;5119294;27;20073;-63
2022/12/14 06:28:34;;;;;;;26.87;16.13;;;-2.90;71.10;;;;;;5119202;27;20043;-63
2022/12/14 06:31:00;;;;;;;31.23;16.23;;;-2.90;71.10;;;;;;5119221;27;20039;-63
2022/12/14 06:33:26;;;;;;;29.37;16.93;;;-2.90;71.00;;;;;;5120314;27;20383;-63
2022/12/14 06:35:52;;;;;;;28.00;16.13;;;-2.90;71.00;;;;;;5119007;27;20039;-63
2022/12/14 06:38:17;;;;;;;27.40;15.23;;;-2.90;70.90;;;;;;5119244;27;20039;-64
2022/12/14 06:40:43;;;;;;;31.77;17.80;;;-2.90;70.80;;;;;;5118517;27;20047;-64
2022/12/14 06:43:09;;;;;;;32.77;17.33;;;-2.90;70.80;;;;;;5118990;27;20043;-63
2022/12/14 06:45:35;;;;;;;30.30;18.07;;;-3.00;70.70;;;;;;5118817;27;20039;-63
2022/12/14 06:48:01;;;;;;;34.07;16.83;;;-2.90;70.80;;;;;;5136901;27;20048;-63
2022/12/14 06:50:27;;;;;;;32.00;17.77;;;-3.00;70.80;;;;;;5136617;27;20031;-63
2022/12/14 06:52:56;;;;;;;35.37;18.93;;;-3.00;70.80;;;;;;5118312;27;20130;-65
2022/12/14 06:55:24;;;;;;;34.87;18.50;;;-3.00;70.70;;;;;;5101639;27;20039;-63
2022/12/14 06:57:53;;;;;;;31.20;17.13;;;-3.00;70.20;;;;;;5101401;27;20099;-64
2022/12/14 07:00:21;;;;;;;28.07;16.37;;;-3.00;70.20;;;;;;5118169;27;20067;-63
2022/12/14 07:02:47;;;;;;;32.33;18.80;;;-3.00;70.30;;;;;;5118522;27;20031;-63
2022/12/14 07:05:13;;;;;;;34.90;18.90;;;-3.10;70.20;;;;;;5118216;27;20039;-63
2022/12/14 07:07:39;;;;;;;31.60;18.13;;;-3.10;70.30;;;;;;5118118;27;20043;-63
2022/12/14 07:10:07;;;;;;;31.03;17.40;;;-3.10;70.40;;;;;;5101711;27;20372;-63
2022/12/14 07:12:32;;;;;;;35.00;19.00;;;-3.10;70.40;;;;;;5137039;27;20038;-63
2022/12/14 07:14:58;;;;;;;32.40;17.93;;;-3.10;70.40;;;;;;5118218;27;20047;-64
2022/12/14 07:17:24;;;;;;;32.10;18.83;;;-3.10;70.30;;;;;;5118247;27;20386;-63
2022/12/14 07:19:50;;;;;;;31.13;16.93;;;-3.10;70.30;;;;;;5136302;27;20138;-63
2022/12/14 07:22:16;;;;;;;29.03;16.37;;;-3.10;70.20;;;;;;5136178;27;20096;-63
2022/12/14 07:24:42;;;;;;;32.27;18.57;;;-3.10;70.20;;;;;;5117877;27;20432;-63
2022/12/14 07:27:08;;;;;;;31.10;16.43;;;-3.20;70.00;;;;;;5117958;27;20082;-63
2022/12/14 07:29:33;;;;;;;28.80;16.93;;;-3.20;70.00;;;;;;5117460;27;20070;-63
2022/12/14 07:31:59;;;;;;;31.30;17.20;;;-3.20;70.50;;;;;;5117336;27;20047;-63
2022/12/14 07:34:25;;;;;;;28.57;15.73;;;-3.20;70.10;;;;;;5117737;27;20070;-63
2022/12/14 07:36:52;;;;;;;27.87;15.83;;;-3.20;70.00;;;;;;5117191;27;20035;-63
2022/12/14 07:39:19;;;;;;;32.60;17.57;;;-3.20;69.80;;;;;;5101072;27;20038;-63
2022/12/14 07:41:46;;;;;;;27.20;15.17;;;-3.20;69.80;;;;;;5117202;27;20035;-63
2022/12/14 07:44:12;;;;;;;26.43;15.27;;;-3.20;69.90;;;;;;5117430;27;20028;-63
2022/12/14 07:46:38;;;;;;;26.53;15.40;;;-3.20;69.90;;;;;;5117253;27;20045;-63
2022/12/14 07:49:05;;;;;;;30.27;16.97;;;-3.30;69.90;;;;;;5117384;27;20043;-63
2022/12/14 07:51:34;;;;;;;29.97;16.37;;;-3.20;70.00;;;;;;5117374;27;20114;-63
2022/12/14 07:54:01;;;;;;;27.60;16.27;;;-3.20;69.90;;;;;;5117348;27;20157;-64
2022/12/14 07:56:33;;;;;;;29.43;15.53;;;-3.30;69.80;;;;;;5117047;27;20046;-64
2022/12/14 07:59:00;;;;;;;30.30;16.97;;;-3.30;69.80;;;;;;5117326;27;20027;-64
2022/12/14 08:01:30;;;;;;;29.27;16.63;;;-3.30;69.80;;;;;;5116880;27;20451;-64
2022/12/14 08:04:04;;;;;;;27.23;16.90;;;-3.30;69.70;;;;;;5116910;27;20043;-64
2022/12/14 08:06:30;;;;;;;27.50;16.40;;;-3.30;69.80;;;;;;5116973;27;20121;-64
2022/12/14 08:08:57;;;;;;;32.40;16.90;;;-3.30;69.70;;;;;;5100442;27;20145;-64
2022/12/14 08:11:24;;;;;;;30.03;16.13;;;-3.30;69.70;;;;;;5116693;27;20482;-64
2022/12/14 08:13:57;;;;;;;30.87;16.13;;;-3.30;69.50;;;;;;5100015;27;20047;-64
2022/12/14 08:16:23;;;;;;;26.37;14.83;;;-3.30;69.50;;;;;;5116807;27;20039;-64
2022/12/14 08:18:51;;;;;;;29.27;15.67;;;-3.30;69.40;;;;;;5116464;27;20047;-64
2022/12/14 08:21:19;;;;;;;26.60;14.47;;;-3.40;69.40;;;;;;5099578;27;20477;-64
2022/12/14 08:23:45;;;;;;;32.07;17.27;;;-3.40;69.40;;;;;;5116562;27;20035;-64
2022/12/14 08:26:11;;;;;;;28.37;15.57;;;-3.40;69.40;;;;;;5116471;27;20092;-64
2022/12/14 08:28:37;;;;;;;26.20;15.23;;;-3.40;69.50;;;;;;5116441;27;20056;-64
2022/12/14 08:31:08;;;;;;;29.97;15.90;;;-3.40;69.50;;;;;;5134357;27;20039;-64
2022/12/14 08:33:36;;;;;;;28.13;15.63;;;-3.40;69.60;;;;;;5114546;27;20039;-64
2022/12/14 08:36:12;;;;;;;29.90;16.83;;;-3.40;69.40;;;;;;5078949;28;20475;-63
2022/12/14 08:38:39;;;;;;;28.57;16.37;;;-3.40;69.20;;;;;;5095789;28;20036;-63
2022/12/14 08:41:08;;;;;;;30.60;17.57;;;-3.40;69.10;;;;;;5095724;28;20506;-63
2022/12/14 08:43:35;;;;;;;25.00;14.47;;;-3.40;69.30;;;;;;5095670;28;20051;-64
2022/12/14 08:46:01;;;;;;;27.70;16.33;;;-3.40;69.40;;;;;;5095942;28;20408;-64
2022/12/14 08:48:27;;;;;;;32.90;16.57;;;-3.40;69.40;;;;;;5113282;27;20059;-64
2022/12/14 08:50:53;;;;;;;30.63;15.53;;;-3.40;69.50;;;;;;5116079;27;20136;-64
2022/12/14 08:53:19;;;;;;;28.53;15.53;;;-3.30;69.50;;;;;;5115710;27;20470;-63
2022/12/14 08:55:45;;;;;;;28.17;14.63;;;-3.30;69.60;;;;;;5133825;27;20047;-64
2022/12/14 08:58:12;;;;;;;28.77;16.27;;;-3.40;69.60;;;;;;5115621;27;20046;-63
2022/12/14 09:00:38;;;;;;;31.13;17.07;;;-3.30;69.70;;;;;;5115124;27;20039;-63
2022/12/14 09:03:05;;;;;;;29.23;15.67;;;-3.30;69.70;;;;;;5115393;27;20046;-63
2022/12/14 09:05:30;;;;;;;29.33;15.23;;;-3.20;69.80;;;;;;5115079;27;20502;-63
2022/12/14 09:07:56;;;;;;;27.13;16.30;;;-3.20;69.90;;;;;;5115705;27;20039;-63
2022/12/14 09:10:22;;;;;;;29.90;15.47;;;-3.20;69.90;;;;;;5115623;27;20079;-64
2022/12/14 09:12:48;;;;;;;30.83;16.50;;;-3.20;69.90;;;;;;5115537;27;20043;-64
2022/12/14 09:15:13;;;;;;;29.97;16.03;;;-3.20;70.00;;;;;;5115460;27;20062;-64
2022/12/14 09:17:39;;;;;;;31.50;16.23;;;-3.20;70.00;;;;;;5098673;27;20065;-64
2022/12/14 09:20:06;;;;;;;33.77;17.83;;;-3.10;70.10;;;;;;5133993;27;20039;-64
2022/12/14 09:22:31;;;;;;;32.07;17.90;;;-3.10;70.20;;;;;;5111882;28;20112;-66
2022/12/14 09:24:57;;;;;;;28.03;15.93;;;-3.10;70.20;;;;;;5111970;28;20474;-67
2022/12/14 09:27:23;;;;;;;30.73;16.60;;;-3.10;70.40;;;;;;5112115;28;20070;-64
2022/12/14 09:29:49;;;;;;;33.27;17.70;;;-3.00;70.50;;;;;;5113298;28;20031;-64
2022/12/14 09:32:15;;;;;;;31.50;16.90;;;-3.00;70.60;;;;;;5113562;28;20390;-65
2022/12/14 09:34:40;;;;;;;31.60;16.63;;;-2.90;70.70;;;;;;5095016;28;20044;-65
2022/12/14 09:37:06;;;;;;;29.27;16.63;;;-2.90;70.70;;;;;;5095446;28;20443;-65
2022/12/14 09:39:33;;;;;;;29.20;16.37;;;-2.80;70.70;;;;;;5111882;28;20084;-65
2022/12/14 09:42:40;;;;;;;29.97;17.00;;;-2.70;70.80;;;;;;5113104;28;20061;-65
2022/12/14 09:45:16;;;;;;;30.00;17.33;;;-2.60;70.90;;;;;;5055374;28;20545;-65
2022/12/14 09:47:56;;;;;;;31.33;18.00;;;-2.50;70.80;;;;;;5111663;28;20047;-65
2022/12/14 09:50:23;;;;;;;36.57;20.83;;;-2.50;70.70;;;;;;5111641;28;20118;-65
2022/12/14 09:52:50;;;;;;;30.60;17.33;;;-2.40;70.70;;;;;;5094277;28;20048;-65
2022/12/14 09:55:19;;;;;;;31.30;17.23;;;-2.30;70.70;;;;;;5111331;28;20483;-65
2022/12/14 09:57:48;;;;;;;36.90;18.20;;;-2.30;70.70;;;;;;5111349;28;20091;-65
2022/12/14 10:00:17;;;;;;;27.43;16.27;;;-2.20;70.60;;;;;;5111435;28;20086;-65
2022/12/14 10:03:11;;;;;;;31.13;18.03;;;-2.20;70.60;;;;;;5094513;28;20097;-65
2022/12/14 10:05:57;;;;;;;32.67;18.40;;;-2.10;70.50;;;;;;5111264;28;20570;-65
2022/12/14 10:08:54;;;;;;;33.80;18.13;;;-2.00;70.50;;;;;;5111475;28;20047;-65
2022/12/14 10:11:31;;;;;;;34.13;19.17;;;-2.00;70.70;;;;;;5023209;28;20121;-66
2022/12/14 10:14:18;;;;;;;32.13;18.53;;;-1.90;70.40;;;;;;5094666;28;20131;-67
2022/12/14 10:17:08;;;;;;;32.83;16.90;;;-1.90;70.10;;;;;;5094464;28;20445;-67
2022/12/14 10:19:49;;;;;;;33.33;17.10;;;-1.80;70.00;;;;;;5111441;28;20505;-67
2022/12/14 10:22:29;;;;;;;32.57;18.17;;;-1.80;69.90;;;;;;5111583;28;20050;-66
2022/12/14 10:25:13;;;;;;;29.83;17.07;;;-1.70;69.80;;;;;;5111839;28;20040;-66
2022/12/14 10:27:41;;;;;;;30.20;16.53;;;-1.70;69.80;;;;;;5111602;28;20035;-66
2022/12/14 10:30:15;;;;;;;29.30;16.70;;;-1.60;69.90;;;;;;5111552;28;20081;-66
2022/12/14 10:32:51;;;;;;;31.05;17.55;;;-1.60;70.10;;;;;;5111398;28;20032;-66
2022/12/14 10:35:51;;;;;;;32.90;17.50;;;-1.50;70.10;;;;;;5094747;28;20493;-66
2022/12/14 10:38:21;;;;;;;30.80;17.10;;;-1.50;69.80;;;;;;5106121;28;20067;-65
2022/12/14 10:40:58;;;;;;;34.17;18.50;;;-1.50;70.00;;;;;;5111804;28;20382;-65
2022/12/14 10:43:39;;;;;;;33.33;17.93;;;-1.40;70.00;;;;;;5095388;28;20044;-66
2022/12/14 10:46:16;;;;;;;36.10;19.17;;;-1.40;70.10;;;;;;5109868;28;20081;-65
2022/12/14 10:48:53;;;;;;;33.13;17.97;;;-1.40;70.20;;;;;;5117865;28;20078;-65
2022/12/14 10:51:32;;;;;;;29.77;18.57;;;-1.30;70.20;;;;;;5116835;28;20402;-65
2022/12/14 10:54:19;;;;;;;32.40;18.43;;;-1.30;70.00;;;;;;5118731;28;20126;-65
2022/12/14 10:56:48;;;;;;;30.90;17.60;;;-1.30;69.80;;;;;;5119108;27;20039;-65
2022/12/14 10:59:17;;;;;;;28.97;16.17;;;-1.20;69.80;;;;;;5120996;27;20043;-65
2022/12/14 11:01:48;;;;;;;27.33;16.80;;;-1.20;69.90;;;;;;5120984;27;20475;-65
2022/12/14 11:04:35;;;;;;;32.93;17.73;;;-1.20;69.90;;;;;;5123701;27;20035;-65
2022/12/14 11:07:10;;;;;;;28.60;18.00;;;-1.20;69.90;;;;;;5122574;27;20068;-65
2022/12/14 11:09:37;;;;;;;31.73;17.67;;;-1.10;70.10;;;;;;5110785;27;20043;-66
2022/12/14 11:12:14;;;;;;;29.67;17.10;;;-1.10;70.20;;;;;;5121405;27;20065;-70
2022/12/14 11:14:52;;;;;;;27.80;16.93;;;-0.80;70.50;;;;;;5110210;27;20122;-71
2022/12/14 11:17:42;;;;;;;27.43;16.60;;;-1.00;70.50;;;;;;5123002;27;20040;-66
2022/12/14 11:20:08;;;;;;;30.33;17.33;;;-0.90;70.50;;;;;;5127517;27;20475;-66
2022/12/14 11:22:46;;;;;;;27.83;17.50;;;-0.90;70.50;;;;;;5128056;27;20051;-66
2022/12/14 11:25:41;;;;;;;30.07;17.27;;;-0.80;70.50;;;;;;5128449;27;20142;-65
2022/12/14 11:28:26;;;;;;;29.58;15.70;;;-0.80;70.40;;;;;;5128055;27;20047;-65
2022/12/14 11:31:19;;;;;;;28.27;16.50;;;-0.80;70.40;;;;;;5125845;27;20050;-66
2022/12/14 11:33:51;;;;;;;26.20;15.30;;;-0.80;70.40;;;;;;5128348;27;20149;-66
2022/12/14 11:36:33;;;;;;;32.07;17.80;;;-0.70;70.50;;;;;;5125945;27;20047;-66
2022/12/14 11:39:03;;;;;;;26.43;15.20;;;-0.60;70.50;;;;;;5126228;27;20042;-66
2022/12/14 11:41:37;;;;;;;29.80;16.40;;;-0.60;70.40;;;;;;5128501;27;20035;-66
2022/12/14 11:44:15;;;;;;;29.90;17.58;;;-0.60;70.20;;;;;;5116062;27;20487;-66
2022/12/14 11:46:46;;;;;;;25.80;15.80;;;-0.50;70.20;;;;;;5097517;28;20371;-66
2022/12/14 11:49:38;;;;;;;25.27;14.63;;;-0.50;70.10;;;;;;5097223;28;20128;-66
2022/12/14 11:52:03;;;;;;;26.03;15.57;;;-0.50;69.80;;;;;;5074926;28;20047;-66
2022/12/14 11:54:30;;;;;;;25.80;14.90;;;-0.50;69.90;;;;;;5114063;28;20457;-67
2022/12/14 11:57:30;;;;;;;28.70;16.53;;;-0.50;69.90;;;;;;5114555;28;20043;-66
2022/12/14 12:00:03;;;;;;;26.53;15.37;;;-0.50;69.80;;;;;;5058558;28;20386;-67
2022/12/14 12:02:39;;;;;;;23.83;13.73;;;-0.50;69.80;;;;;;5114082;28;20389;-67
2022/12/14 12:05:12;;;;;;;24.03;13.30;;;-0.40;69.80;;;;;;5113763;28;20128;-67
2022/12/14 12:07:50;;;;;;;26.27;15.57;;;-0.50;69.70;;;;;;5118525;27;20047;-67
2022/12/14 12:10:23;;;;;;;24.53;14.00;;;-0.40;69.60;;;;;;5105149;27;20515;-67
2022/12/14 12:12:56;;;;;;;25.57;14.77;;;-0.40;69.70;;;;;;5120363;27;20039;-67
2022/12/14 12:15:32;;;;;;;25.00;13.90;;;-0.40;69.70;;;;;;5107332;27;20466;-67
2022/12/14 12:18:18;;;;;;;26.10;14.60;;;-0.40;69.70;;;;;;5116290;27;20042;-67
2022/12/14 12:21:23;;;;;;;24.63;13.33;;;-0.40;69.60;;;;;;5119120;27;20035;-67
2022/12/14 12:23:55;;;;;;;22.53;12.97;;;-0.40;69.50;;;;;;5111591;27;20044;-67
2022/12/14 12:26:26;;;;;;;23.37;13.70;;;-0.40;69.50;;;;;;5113101;27;20035;-67
2022/12/14 12:29:01;;;;;;;27.33;14.13;;;-0.40;69.50;;;;;;5092964;28;20047;-67
2022/12/14 12:31:46;;;;;;;25.83;15.17;;;-0.30;69.50;;;;;;5112199;27;20036;-67
2022/12/14 12:34:45;;;;;;;28.70;15.52;;;-0.30;69.40;;;;;;5122618;27;20047;-67
2022/12/14 12:37:16;;;;;;;24.30;14.03;;;-0.30;69.40;;;;;;5128150;27;20125;-67
2022/12/14 12:39:47;;;;;;;23.73;13.83;;;-0.40;69.40;;;;;;5123551;27;20055;-67
2022/12/14 12:42:32;;;;;;;24.00;13.43;;;-0.30;69.50;;;;;;5123834;27;20095;-67
2022/12/14 12:45:10;;;;;;;27.77;14.40;;;-0.30;69.50;;;;;;5116936;27;20067;-67
2022/12/14 12:48:00;;;;;;;22.73;13.33;;;-0.30;69.50;;;;;;5113716;27;20075;-67
2022/12/14 12:50:32;;;;;;;23.10;14.27;;;-0.30;69.40;;;;;;5113623;27;20039;-67
2022/12/14 12:53:05;;;;;;;24.23;13.80;;;-0.30;69.60;;;;;;5112173;28;20058;-67
2022/12/14 12:55:41;;;;;;;23.43;14.10;;;-0.30;69.50;;;;;;5112725;28;20483;-67
2022/12/14 12:58:28;;;;;;;22.37;12.83;;;-0.30;69.50;;;;;;5113090;28;20053;-67
2022/12/14 13:01:00;;;;;;;21.87;12.67;;;-0.30;69.40;;;;;;5112538;28;20050;-67
2022/12/14 13:03:47;;;;;;;22.40;12.67;;;-0.30;69.50;;;;;;5112549;28;20054;-67
2022/12/14 13:06:20;;;;;;;19.43;11.27;;;-0.30;69.40;;;;;;5112805;28;20376;-67